createdAt,value
2023-08-25T00:00:00.239Z,9.0
2023-08-25T00:05:00.235Z,9.9
2023-08-25T00:10:00.239Z,15.3
2023-08-25T00:15:00.235Z,11.5
2023-08-25T00:20:00.237Z,12.9
2023-08-25T00:25:00.239Z,11.4
2023-08-25T00:30:00.324Z,0.0
2023-08-25T00:35:00.242Z,12.5
2023-08-25T00:45:00.232Z,16.7
2023-08-25T00:50:00.237Z,14.5
2023-08-25T00:55:00.271Z,19.0
2023-08-25T01:00:00.259Z,17.7
2023-08-25T01:05:00.249Z,18.1
2023-08-25T01:15:00.242Z,22.1
2023-08-25T01:20:00.257Z,19.8
2023-08-25T01:25:00.241Z,24.6
2023-08-25T01:30:00.248Z,25.3
2023-08-25T01:35:00.242Z,25.8
2023-08-25T01:40:00.255Z,22.2
2023-08-25T01:45:00.256Z,22.6
2023-08-25T01:50:00.238Z,27.1
2023-08-25T01:55:00.252Z,24.4
2023-08-25T02:00:00.219Z,27.7
2023-08-25T02:05:00.354Z,24.9
2023-08-25T02:10:00.260Z,25.9
2023-08-25T02:15:00.231Z,26.4
2023-08-25T02:20:00.254Z,30.9
2023-08-25T02:25:00.227Z,28.0
2023-08-25T02:30:00.250Z,27.0
2023-08-25T02:35:00.228Z,30.9
2023-08-25T02:40:00.234Z,28.2
2023-08-25T02:45:00.230Z,30.9
2023-08-25T02:50:00.236Z,0.0
2023-08-25T02:55:00.229Z,27.8
2023-08-25T03:00:00.231Z,27.7
2023-08-25T03:10:00.251Z,0.0
2023-08-25T03:15:00.239Z,29.3
2023-08-25T03:25:00.297Z,31.0
2023-08-25T03:30:00.250Z,33.7
2023-08-25T03:35:00.239Z,36.0
2023-08-25T04:00:00.242Z,40.4
2023-08-25T04:05:00.231Z,37.0
2023-08-25T04:10:00.238Z,39.9
2023-08-25T04:15:00.230Z,41.6
2023-08-25T04:20:00.238Z,38.4
2023-08-25T04:25:00.236Z,35.3
2023-08-25T04:35:00.226Z,40.6
2023-08-25T04:40:00.233Z,34.0
2023-08-25T04:45:00.233Z,40.8
2023-08-25T04:50:00.234Z,36.4
2023-08-25T04:55:00.250Z,38.1
2023-08-25T05:00:00.280Z,35.8
2023-08-25T05:05:00.233Z,37.7
2023-08-25T05:10:00.222Z,33.3
2023-08-25T05:15:00.282Z,0.0
2023-08-25T05:25:00.229Z,35.2
2023-08-25T05:30:00.294Z,33.9
2023-08-25T05:40:00.228Z,30.6
2023-08-25T05:45:00.229Z,31.7
2023-08-25T05:50:00.230Z,31.6
2023-08-25T06:00:00.233Z,31.9
2023-08-25T06:10:00.291Z,30.3
2023-08-25T06:15:00.307Z,30.3
2023-08-25T06:30:00.253Z,30.4
2023-08-25T06:40:00.244Z,30.1
2023-08-25T06:45:00.233Z,31.4
2023-08-25T06:50:00.251Z,31.4
2023-08-25T07:10:00.278Z,26.0
2023-08-25T07:15:00.244Z,33.1
2023-08-25T07:30:00.262Z,29.1
2023-08-25T07:35:00.231Z,26.0
2023-08-25T07:40:01.090Z,22.3
2023-08-25T07:45:00.226Z,29.0
2023-08-25T07:50:00.409Z,27.5
2023-08-25T07:55:00.236Z,27.7
2023-08-25T08:00:00.248Z,23.6
2023-08-25T08:05:00.228Z,27.6
2023-08-25T08:10:00.304Z,25.4
2023-08-25T08:15:00.240Z,26.0
2023-08-25T08:20:00.238Z,27.8
2023-08-25T08:25:00.239Z,29.0
2023-08-25T08:30:00.230Z,28.6
2023-08-25T08:35:00.231Z,25.3
2023-08-25T08:40:00.267Z,31.3
2023-08-25T08:45:00.277Z,25.8
2023-08-25T08:50:00.251Z,26.5
2023-08-25T08:55:00.233Z,44.6
2023-08-25T09:00:00.231Z,35.8
2023-08-25T09:05:00.374Z,20.7
2023-08-25T09:10:00.440Z,19.1
2023-08-25T09:15:00.231Z,17.5
2023-08-25T09:20:00.231Z,19.5
2023-08-25T09:25:00.266Z,22.0
2023-08-25T09:30:00.366Z,17.6
2023-08-25T09:35:00.229Z,22.8
2023-08-25T09:40:00.241Z,24.4
2023-08-25T09:45:00.278Z,23.6
2023-08-25T09:50:00.264Z,23.6
2023-08-25T09:55:00.235Z,22.1
2023-08-25T10:00:00.323Z,26.0
2023-08-25T10:05:00.334Z,32.5
2023-08-25T10:10:00.237Z,28.2
2023-08-25T10:15:00.238Z,30.3
2023-08-25T10:20:00.255Z,29.9
2023-08-25T10:25:00.285Z,28.4
2023-08-25T10:30:00.306Z,32.5
2023-08-25T10:35:00.259Z,24.6
2023-08-25T10:40:00.237Z,33.7
2023-08-25T10:45:00.231Z,31.6
2023-08-25T10:50:00.247Z,26.2
2023-08-25T10:55:00.231Z,22.2
2023-08-25T11:00:00.246Z,26.3
2023-08-25T11:05:00.244Z,23.3
2023-08-25T11:10:00.246Z,23.3
2023-08-25T11:15:00.241Z,23.9
2023-08-25T11:20:00.261Z,19.5
2023-08-25T11:25:00.245Z,18.7
2023-08-25T11:30:00.236Z,16.8
2023-08-25T11:35:00.241Z,12.3
2023-08-25T11:40:00.235Z,13.6
2023-08-25T11:45:00.235Z,15.2
2023-08-25T11:50:00.241Z,9.2
2023-08-25T11:55:00.249Z,9.1
2023-08-25T12:00:00.258Z,8.1
2023-08-25T12:05:00.885Z,8.5
2023-08-25T12:10:00.279Z,7.4
2023-08-25T12:15:00.240Z,7.5
2023-08-25T12:20:00.253Z,7.0
2023-08-25T12:25:00.240Z,7.5
2023-08-25T12:30:00.242Z,7.2
2023-08-25T12:35:00.229Z,7.7
2023-08-25T12:40:00.291Z,7.3
2023-08-25T12:45:00.230Z,8.0
2023-08-25T12:50:00.250Z,9.1
2023-08-25T12:55:18.161Z,9.2
2023-08-25T13:00:00.254Z,9.6
2023-08-25T13:05:00.231Z,9.1
2023-08-25T13:10:00.269Z,8.4
2023-08-25T13:15:00.344Z,8.7
2023-08-25T13:20:00.231Z,8.9
2023-08-25T13:25:00.241Z,8.1
2023-08-25T13:30:00.242Z,9.6
2023-08-25T13:35:00.238Z,9.0
2023-08-25T13:40:00.266Z,10.4
2023-08-25T13:45:00.276Z,10.3
2023-08-25T13:50:00.239Z,9.6
2023-08-25T13:55:00.243Z,9.2
2023-08-25T14:00:00.234Z,9.3
2023-08-25T14:05:00.246Z,9.1
2023-08-25T14:10:00.223Z,9.1
2023-08-25T14:15:00.227Z,8.2
2023-08-25T14:20:00.252Z,7.9
2023-08-25T14:25:00.247Z,9.5
2023-08-25T14:30:01.210Z,8.4
2023-08-25T14:35:00.237Z,8.5
2023-08-25T14:40:00.238Z,10.0
2023-08-25T14:45:00.229Z,12.1
2023-08-25T14:50:00.248Z,9.9
2023-08-25T14:55:00.247Z,13.5
2023-08-25T15:00:00.230Z,10.6
2023-08-25T15:05:00.224Z,14.0
2023-08-25T15:10:00.229Z,13.6
2023-08-25T15:15:00.262Z,17.5
2023-08-25T15:20:00.232Z,15.7
2023-08-25T15:25:00.232Z,14.5
2023-08-25T15:30:00.245Z,9.9
2023-08-25T15:35:00.238Z,9.8
2023-08-25T15:40:00.232Z,16.5
2023-08-25T15:45:00.252Z,18.8
2023-08-25T15:50:00.240Z,21.1
2023-08-25T15:55:00.232Z,21.1
2023-08-25T16:00:00.266Z,19.8
2023-08-25T16:05:00.247Z,20.3
2023-08-25T16:10:00.232Z,18.9
2023-08-25T16:15:00.238Z,18.5
2023-08-25T16:20:00.250Z,16.5
2023-08-25T16:25:00.265Z,21.1
2023-08-25T16:30:00.244Z,22.0
2023-08-25T16:35:00.228Z,24.5
2023-08-25T16:40:00.229Z,26.5
2023-08-25T16:45:00.245Z,33.5
2023-08-25T16:50:00.245Z,24.8
2023-08-25T16:55:00.237Z,33.2
2023-08-25T17:00:00.230Z,32.5
2023-08-25T17:05:00.270Z,29.4
2023-08-25T17:10:00.235Z,30.1
2023-08-25T17:15:00.233Z,27.4
2023-08-25T17:20:00.230Z,29.3
2023-08-25T17:25:00.237Z,30.4
2023-08-25T17:30:00.248Z,28.2
2023-08-25T17:35:00.230Z,33.7
2023-08-25T17:40:00.253Z,23.3
2023-08-25T17:45:00.238Z,27.2
2023-08-25T17:50:00.243Z,24.2
2023-08-25T17:55:00.240Z,26.1
2023-08-25T18:00:00.314Z,27.8
2023-08-25T18:05:00.231Z,22.5
2023-08-25T18:10:00.245Z,25.6
2023-08-25T18:15:00.254Z,25.0
2023-08-25T18:20:00.237Z,24.5
2023-08-25T18:25:00.264Z,24.8
2023-08-25T18:30:00.237Z,23.3
2023-08-25T18:35:00.244Z,22.1
2023-08-25T18:40:00.238Z,19.1
2023-08-25T18:45:00.237Z,22.6
2023-08-25T18:50:00.232Z,20.6
2023-08-25T18:55:00.238Z,21.4
2023-08-25T19:00:00.271Z,23.2
2023-08-25T19:05:00.238Z,21.9
2023-08-25T19:10:00.276Z,22.5
2023-08-25T19:15:00.239Z,18.9
2023-08-25T19:20:00.246Z,18.6
2023-08-25T19:25:00.232Z,21.8
2023-08-25T19:30:00.268Z,18.4
2023-08-25T19:35:00.232Z,21.4
2023-08-25T19:40:00.231Z,16.6
2023-08-25T19:45:00.238Z,15.5
2023-08-25T19:50:00.265Z,16.9
2023-08-25T19:55:00.245Z,17.6
2023-08-25T20:00:00.276Z,17.7
2023-08-25T20:05:00.230Z,22.3
2023-08-25T20:10:00.258Z,19.5
2023-08-25T20:15:00.240Z,19.0
2023-08-25T20:20:00.260Z,13.2
2023-08-25T20:25:00.251Z,11.3
2023-08-25T20:30:00.233Z,14.1
2023-08-25T20:35:00.233Z,12.2
2023-08-25T20:40:00.241Z,12.1
2023-08-25T20:45:00.249Z,11.7
2023-08-25T20:50:00.221Z,13.0
2023-08-25T20:55:00.238Z,10.1
2023-08-25T21:00:00.252Z,10.1
2023-08-25T21:05:00.248Z,13.3
2023-08-25T21:10:00.270Z,12.0
2023-08-25T21:15:00.237Z,9.2
2023-08-25T21:20:00.236Z,10.9
2023-08-25T21:25:00.232Z,11.2
2023-08-25T21:30:00.240Z,11.1
2023-08-25T21:35:00.224Z,8.8
2023-08-25T21:40:00.272Z,8.4
2023-08-25T21:45:00.240Z,10.2
2023-08-25T21:50:00.235Z,9.3
2023-08-25T21:55:00.233Z,8.7
2023-08-25T22:00:00.289Z,8.5
2023-08-25T22:05:00.233Z,8.4
2023-08-25T22:10:00.229Z,9.4
2023-08-25T22:15:00.239Z,9.3
2023-08-25T22:20:06.539Z,8.0
2023-08-25T22:25:00.241Z,9.3
2023-08-25T22:30:00.276Z,8.0
2023-08-25T22:35:00.302Z,9.2
2023-08-25T22:40:00.230Z,7.4
2023-08-25T22:45:00.236Z,8.8
2023-08-25T22:50:00.232Z,8.1
2023-08-25T22:55:00.229Z,9.5
2023-08-25T23:00:00.262Z,8.6
2023-08-25T23:05:00.292Z,8.9
2023-08-25T23:10:00.266Z,10.1
2023-08-25T23:20:00.280Z,7.2
2023-08-25T23:25:00.243Z,9.6
2023-08-25T23:30:00.336Z,8.9
2023-08-25T23:35:00.266Z,8.9
2023-08-25T23:40:00.234Z,10.4
2023-08-25T23:45:00.273Z,6.4
2023-08-25T23:50:00.243Z,0.0
2023-08-25T23:55:00.228Z,8.7
